Time;durP1;ratioP1;P1;durP2;ratioP2;P2;SDS_P1;SDS_P2;PMS_P1;PMS_P2;Temp;Humidity;BMP_temperature;BMP_pressure;BME280_temperature;BME280_humidity;BME280_pressure;Samples;Min_cycle;Max_cycle;Signal;HPM_P1;HPM_P2
2022/05/05 00:02:04;;;;;;;5.77;3.80;;;10.30;99.90;;;;;;5121425;27;20428;-67
2022/05/05 00:04:29;;;;;;;10.00;4.33;;;10.30;99.90;;;;;;5115848;27;20507;-67
2022/05/05 00:06:55;;;;;;;6.73;3.97;;;10.30;99.90;;;;;;5119216;27;20487;-67
2022/05/05 00:09:21;;;;;;;8.30;4.13;;;10.30;99.90;;;;;;5124084;27;20259;-67
2022/05/05 00:14:33;;;;;;;13.90;4.30;;;10.20;99.90;;;;;;5128020;27;20284;-68
2022/05/05 00:17:07;;;;;;;7.30;3.90;;;10.10;99.90;;;;;;5118790;27;20470;-67
2022/05/05 00:19:35;;;;;;;7.80;4.27;;;10.10;99.90;;;;;;5125483;27;20511;-68
2022/05/05 00:22:01;;;;;;;7.97;4.53;;;10.10;99.90;;;;;;5124427;27;20903;-67
2022/05/05 00:24:27;;;;;;;8.20;4.20;;;10.00;99.90;;;;;;5126215;27;20440;-67
2022/05/05 00:26:53;;;;;;;8.57;4.03;;;9.90;99.90;;;;;;5123007;27;20427;-67
2022/05/05 00:29:20;;;;;;;6.63;3.80;;;9.90;99.90;;;;;;5126109;27;20258;-67
2022/05/05 00:31:46;;;;;;;8.53;4.67;;;9.80;99.90;;;;;;5122047;27;20452;-67
2022/05/05 00:34:12;;;;;;;8.97;4.80;;;9.80;99.90;;;;;;5095016;27;20444;-67
2022/05/05 00:36:38;;;;;;;8.37;4.80;;;9.80;99.90;;;;;;5115071;27;20420;-67
2022/05/05 00:39:05;;;;;;;8.60;4.40;;;9.80;99.90;;;;;;5124361;27;20609;-67
2022/05/05 00:41:35;;;;;;;10.07;5.00;;;9.80;99.90;;;;;;5119975;27;20429;-68
2022/05/05 00:44:02;;;;;;;8.20;4.60;;;9.80;99.90;;;;;;5122366;27;20545;-69
2022/05/05 00:46:29;;;;;;;8.43;5.27;;;9.80;99.90;;;;;;5119312;27;20524;-68
2022/05/05 00:48:55;;;;;;;6.30;4.00;;;9.80;99.90;;;;;;5121564;27;21367;-68
2022/05/05 00:51:21;;;;;;;9.80;5.30;;;9.80;99.90;;;;;;5117540;27;20448;-69
2022/05/05 00:53:47;;;;;;;12.30;5.40;;;9.80;99.90;;;;;;5120487;27;20461;-69
2022/05/05 00:56:14;;;;;;;8.90;4.50;;;9.80;99.90;;;;;;5116600;27;20418;-69
2022/05/05 00:58:42;;;;;;;10.77;5.30;;;9.80;99.90;;;;;;5115533;27;20218;-69
2022/05/05 01:01:09;;;;;;;10.40;5.50;;;9.80;99.90;;;;;;5123130;27;20425;-69
2022/05/05 01:03:35;;;;;;;13.93;6.70;;;9.80;99.90;;;;;;5116835;27;20844;-69
2022/05/05 01:06:02;;;;;;;11.43;5.50;;;9.80;99.90;;;;;;5120383;27;20442;-68
2022/05/05 01:08:28;;;;;;;8.47;4.93;;;9.80;99.90;;;;;;5113038;27;20545;-68
2022/05/05 01:10:54;;;;;;;8.57;5.13;;;9.80;99.90;;;;;;5126469;27;20817;-70
2022/05/05 01:13:20;;;;;;;7.60;3.80;;;9.90;99.90;;;;;;5124164;27;20191;-69
2022/05/05 01:15:46;;;;;;;10.93;4.10;;;9.90;99.90;;;;;;5126540;27;20655;-69
2022/05/05 01:18:11;;;;;;;6.87;4.60;;;9.90;99.90;;;;;;5124086;27;20863;-68
2022/05/05 01:20:48;;;;;;;6.67;4.67;;;9.90;99.90;;;;;;5119115;27;20729;-68
2022/05/05 01:23:14;;;;;;;5.53;3.80;;;9.90;99.90;;;;;;5118118;27;20214;-68
2022/05/05 01:28:25;;;;;;;8.80;5.23;;;9.70;99.90;;;;;;5120170;27;20916;-69
2022/05/05 01:30:51;;;;;;;7.17;4.00;;;9.70;99.90;;;;;;5123677;27;20417;-69
2022/05/05 01:33:18;;;;;;;7.60;4.60;;;9.70;99.90;;;;;;5118037;27;20257;-70
2022/05/05 01:35:45;;;;;;;7.07;4.43;;;9.60;99.90;;;;;;5116537;27;20430;-68
2022/05/05 01:38:16;;;;;;;7.50;3.47;;;9.60;99.90;;;;;;5118212;27;20421;-70
2022/05/05 01:40:48;;;;;;;10.33;4.83;;;9.60;99.90;;;;;;5122421;27;20477;-69
2022/05/05 01:43:15;;;;;;;12.70;5.20;;;9.50;99.90;;;;;;5118087;27;20417;-69
2022/05/05 01:45:42;;;;;;;11.10;4.93;;;9.50;99.90;;;;;;5121863;27;20456;-70
2022/05/05 01:48:08;;;;;;;7.20;4.77;;;9.50;99.90;;;;;;5117027;27;21003;-70
2022/05/05 01:50:34;;;;;;;10.43;5.40;;;9.50;99.90;;;;;;5121079;27;20452;-69
2022/05/05 01:53:01;;;;;;;8.13;5.07;;;9.40;99.90;;;;;;5115405;27;20495;-70
2022/05/05 01:55:27;;;;;;;8.10;4.30;;;9.40;99.90;;;;;;5117187;27;20440;-68
2022/05/05 01:57:54;;;;;;;9.53;4.63;;;9.40;99.90;;;;;;5108551;27;20429;-69
2022/05/05 02:00:20;;;;;;;8.97;4.47;;;9.30;99.90;;;;;;5114635;27;20419;-69
2022/05/05 02:02:46;;;;;;;7.10;4.20;;;9.20;99.90;;;;;;5112714;27;20511;-69
2022/05/05 02:05:12;;;;;;;10.90;5.10;;;9.20;99.90;;;;;;5116816;27;20440;-68
2022/05/05 02:07:39;;;;;;;8.00;5.00;;;9.20;99.90;;;;;;5124250;27;20190;-69
2022/05/05 02:10:07;;;;;;;12.13;5.50;;;9.20;99.90;;;;;;5122520;27;20455;-69
2022/05/05 02:12:35;;;;;;;8.87;4.97;;;9.20;99.90;;;;;;5123334;27;20468;-69
2022/05/05 02:15:08;;;;;;;12.60;5.80;;;9.20;99.90;;;;;;5121233;27;20437;-68
2022/05/05 02:17:38;;;;;;;8.60;5.47;;;9.10;99.90;;;;;;5116227;27;20927;-68
2022/05/05 02:20:06;;;;;;;8.30;4.40;;;9.20;99.90;;;;;;5096937;27;20434;-68
2022/05/05 02:22:33;;;;;;;11.10;4.63;;;9.20;99.90;;;;;;5122237;27;20421;-67
2022/05/05 02:24:58;;;;;;;7.80;4.60;;;9.10;99.90;;;;;;5117027;27;20449;-68
2022/05/05 02:27:24;;;;;;;12.63;4.93;;;9.10;99.90;;;;;;5121871;27;20846;-68
2022/05/05 02:29:50;;;;;;;19.63;5.60;;;9.10;99.90;;;;;;5117783;27;20207;-68
2022/05/05 02:32:17;;;;;;;6.93;5.07;;;9.00;99.90;;;;;;5118394;28;20549;-67
2022/05/05 02:34:46;;;;;;;10.90;5.83;;;9.00;99.90;;;;;;5116282;28;20476;-68
2022/05/05 02:39:58;;;;;;;7.20;4.53;;;9.00;99.90;;;;;;5110336;28;21157;-68
2022/05/05 02:42:23;;;;;;;8.20;5.20;;;9.10;99.90;;;;;;5118854;28;20427;-69
2022/05/05 02:44:49;;;;;;;10.77;5.57;;;9.10;99.90;;;;;;5114029;28;20429;-68
2022/05/05 02:47:15;;;;;;;9.07;5.13;;;9.10;99.90;;;;;;5113720;28;20186;-67
2022/05/05 02:49:41;;;;;;;9.40;4.47;;;9.10;99.90;;;;;;5119933;28;20203;-68
2022/05/05 02:52:08;;;;;;;11.73;5.70;;;9.10;99.90;;;;;;5124548;28;20199;-68
2022/05/05 02:54:47;;;;;;;7.53;4.07;;;9.10;99.90;;;;;;5118285;28;20817;-70
2022/05/05 02:57:13;;;;;;;8.43;4.70;;;9.10;99.90;;;;;;5117236;28;21109;-68
2022/05/05 02:59:38;;;;;;;11.07;5.23;;;9.10;99.90;;;;;;5124399;28;20428;-68
2022/05/05 03:02:04;;;;;;;6.43;4.23;;;9.10;99.90;;;;;;5115949;28;20420;-70
2022/05/05 03:04:30;;;;;;;8.80;5.00;;;9.10;99.90;;;;;;5090808;28;20200;-68
2022/05/05 03:06:55;;;;;;;9.77;5.17;;;9.20;99.90;;;;;;5123464;27;20641;-66
2022/05/05 03:09:21;;;;;;;8.07;4.33;;;9.20;99.90;;;;;;5127058;27;20213;-68
2022/05/05 03:11:47;;;;;;;9.27;4.87;;;9.20;99.90;;;;;;5124327;27;20191;-69
2022/05/05 03:14:12;;;;;;;10.40;5.03;;;9.20;99.90;;;;;;5125958;27;20210;-67
2022/05/05 03:16:38;;;;;;;8.27;4.50;;;9.20;99.90;;;;;;5124292;27;20187;-68
2022/05/05 03:19:04;;;;;;;7.17;4.70;;;9.20;99.90;;;;;;5125039;27;20187;-68
2022/05/05 03:21:29;;;;;;;7.87;4.87;;;9.20;99.90;;;;;;5123572;27;20630;-68
2022/05/05 03:23:55;;;;;;;7.30;4.03;;;9.30;99.90;;;;;;5123107;27;20236;-68
2022/05/05 03:26:20;;;;;;;10.77;5.03;;;9.30;99.90;;;;;;5123150;27;20276;-67
2022/05/05 03:28:46;;;;;;;10.17;4.90;;;9.30;99.90;;;;;;5121040;27;20276;-68
2022/05/05 03:31:12;;;;;;;8.87;5.27;;;9.30;99.90;;;;;;5085975;27;20656;-69
2022/05/05 03:33:37;;;;;;;8.80;4.87;;;9.30;99.90;;;;;;5116503;27;20219;-68
2022/05/05 03:36:04;;;;;;;10.20;5.23;;;9.40;99.90;;;;;;5111470;27;20239;-68
2022/05/05 03:38:30;;;;;;;8.20;4.67;;;9.30;99.90;;;;;;5115154;27;20187;-68
2022/05/05 03:40:56;;;;;;;8.73;5.37;;;9.30;99.90;;;;;;5121720;27;20447;-68
2022/05/05 03:43:21;;;;;;;8.07;5.43;;;9.30;99.90;;;;;;5117688;27;20261;-68
2022/05/05 03:45:47;;;;;;;8.27;4.50;;;9.30;99.90;;;;;;5121336;27;20576;-68
2022/05/05 03:48:13;;;;;;;9.27;5.43;;;9.30;99.90;;;;;;5117109;27;20191;-68
2022/05/05 03:50:38;;;;;;;10.00;5.60;;;9.30;99.90;;;;;;5122016;27;20222;-68
2022/05/05 03:53:05;;;;;;;9.20;5.23;;;9.30;99.90;;;;;;5115177;27;20250;-70
2022/05/05 03:55:31;;;;;;;7.13;4.33;;;9.30;99.90;;;;;;5128676;27;20297;-68
2022/05/05 03:57:57;;;;;;;8.57;4.57;;;9.40;99.90;;;;;;5127408;27;20586;-68
2022/05/05 04:00:23;;;;;;;11.70;6.00;;;9.30;99.90;;;;;;5128094;27;20183;-68
2022/05/05 04:05:37;;;;;;;11.37;5.33;;;9.30;99.90;;;;;;5113677;27;20432;-68
2022/05/05 04:08:04;;;;;;;10.10;5.87;;;9.30;99.90;;;;;;5124877;27;20460;-68
2022/05/05 04:10:30;;;;;;;9.20;4.83;;;9.30;99.90;;;;;;5119546;27;20425;-68
2022/05/05 04:12:56;;;;;;;10.13;5.03;;;9.40;99.90;;;;;;5118880;27;20425;-68
2022/05/05 04:15:22;;;;;;;11.33;5.30;;;9.40;99.90;;;;;;5119427;27;20437;-68
2022/05/05 04:17:48;;;;;;;8.90;4.80;;;9.40;99.90;;;;;;5123330;27;20676;-68
2022/05/05 04:20:14;;;;;;;10.40;5.70;;;9.40;99.90;;;;;;5117599;27;20437;-68
2022/05/05 04:22:41;;;;;;;10.33;5.73;;;9.40;99.90;;;;;;5107431;27;20187;-69
2022/05/05 04:25:07;;;;;;;7.63;4.27;;;9.40;99.90;;;;;;5114088;27;20211;-67
2022/05/05 04:27:33;;;;;;;15.53;5.90;;;9.40;99.90;;;;;;5116330;27;20518;-68
2022/05/05 04:29:59;;;;;;;7.80;5.00;;;9.40;99.90;;;;;;5115721;27;20935;-68
2022/05/05 04:32:25;;;;;;;9.47;5.10;;;9.40;99.90;;;;;;5125230;27;20433;-68
2022/05/05 04:34:50;;;;;;;7.73;5.23;;;9.50;99.90;;;;;;5121202;27;20444;-68
2022/05/05 04:37:16;;;;;;;8.40;5.30;;;9.50;99.90;;;;;;5124748;27;20194;-68
2022/05/05 04:39:42;;;;;;;16.50;5.33;;;9.50;99.90;;;;;;5126101;27;20705;-69
2022/05/05 04:42:09;;;;;;;9.90;5.73;;;9.40;99.90;;;;;;5126289;27;20652;-68
2022/05/05 04:44:35;;;;;;;8.90;5.47;;;9.40;99.90;;;;;;5124875;27;20262;-68
2022/05/05 04:47:01;;;;;;;10.17;5.33;;;9.50;99.90;;;;;;5125659;27;20911;-67
2022/05/05 04:49:27;;;;;;;9.17;5.70;;;9.50;99.90;;;;;;5123807;27;20675;-69
2022/05/05 04:51:52;;;;;;;11.23;6.23;;;9.60;99.90;;;;;;5124788;27;20692;-67
2022/05/05 04:54:18;;;;;;;10.20;4.97;;;9.60;99.90;;;;;;5122517;27;20872;-68
2022/05/05 04:56:43;;;;;;;9.13;5.67;;;9.60;99.90;;;;;;5123183;27;20183;-68
2022/05/05 04:59:10;;;;;;;8.17;4.40;;;9.60;99.90;;;;;;5121528;27;20191;-68
2022/05/05 05:01:36;;;;;;;8.27;5.03;;;9.70;99.90;;;;;;5123459;27;20195;-68
2022/05/05 05:04:02;;;;;;;8.83;5.43;;;9.70;99.90;;;;;;5119832;27;20498;-68
2022/05/05 05:06:28;;;;;;;8.13;4.97;;;9.70;99.90;;;;;;5122739;27;20623;-67
2022/05/05 05:08:55;;;;;;;6.10;3.93;;;9.80;99.90;;;;;;5118172;27;20461;-69
2022/05/05 05:11:21;;;;;;;6.87;4.47;;;9.90;99.90;;;;;;5115976;27;20196;-68
2022/05/05 05:13:47;;;;;;;7.80;5.20;;;9.90;99.90;;;;;;5115129;27;20481;-68
2022/05/05 05:16:13;;;;;;;7.47;4.90;;;9.90;99.90;;;;;;5114230;27;20190;-67
2022/05/05 05:18:39;;;;;;;9.87;4.80;;;10.00;99.90;;;;;;5115594;27;20417;-68
2022/05/05 05:21:04;;;;;;;9.67;6.00;;;10.00;99.90;;;;;;5120944;27;20230;-69
2022/05/05 05:23:30;;;;;;;8.77;4.70;;;10.00;99.90;;;;;;5114960;27;20267;-69
2022/05/05 05:25:56;;;;;;;18.93;5.73;;;10.10;99.90;;;;;;5119721;27;20207;-70
2022/05/05 05:28:21;;;;;;;15.53;4.80;;;10.10;99.90;;;;;;5120795;27;20206;-68
2022/05/05 05:30:47;;;;;;;7.73;4.30;;;10.10;99.90;;;;;;5126200;27;20197;-68
2022/05/05 05:33:13;;;;;;;10.87;4.70;;;10.20;99.90;;;;;;5123311;27;20210;-68
2022/05/05 05:35:39;;;;;;;7.53;5.10;;;10.30;99.90;;;;;;5122937;27;20533;-68
2022/05/05 05:38:04;;;;;;;12.07;5.90;;;10.40;99.90;;;;;;5123304;27;20210;-68
2022/05/05 05:40:31;;;;;;;8.57;4.70;;;10.50;99.90;;;;;;5124805;27;20198;-68
2022/05/05 05:42:57;;;;;;;7.27;4.73;;;10.50;99.90;;;;;;5122736;27;20190;-68
2022/05/05 05:45:29;;;;;;;10.87;4.27;;;10.60;99.90;;;;;;5096073;27;20456;-66
2022/05/05 05:47:55;;;;;;;9.43;4.37;;;10.70;99.90;;;;;;5121487;27;20447;-67
2022/05/05 05:50:21;;;;;;;7.77;5.10;;;10.80;99.90;;;;;;5124017;27;20939;-69
2022/05/05 05:52:47;;;;;;;11.30;4.70;;;10.90;99.90;;;;;;5119664;27;20740;-68
2022/05/05 05:55:13;;;;;;;7.87;4.57;;;11.00;99.90;;;;;;5122806;27;20551;-68
2022/05/05 05:57:39;;;;;;;9.60;5.07;;;11.00;99.90;;;;;;5116495;27;20429;-68
2022/05/05 06:00:06;;;;;;;8.70;5.07;;;11.20;99.90;;;;;;5122725;27;20974;-68
2022/05/05 06:05:16;;;;;;;12.67;4.90;;;11.40;99.90;;;;;;5117351;27;20464;-68
2022/05/05 06:07:41;;;;;;;8.83;4.13;;;11.50;99.90;;;;;;5113868;27;20428;-68
2022/05/05 06:10:07;;;;;;;7.10;4.20;;;11.70;99.90;;;;;;5119074;27;20333;-68
2022/05/05 06:12:33;;;;;;;8.70;4.37;;;11.70;99.90;;;;;;5116517;27;20191;-68
2022/05/05 06:14:59;;;;;;;11.13;4.60;;;11.70;99.90;;;;;;5117632;27;20455;-69
2022/05/05 06:17:25;;;;;;;7.57;4.60;;;11.70;99.90;;;;;;5115614;27;20233;-68
2022/05/05 06:19:50;;;;;;;6.47;3.90;;;11.70;99.90;;;;;;5119134;27;20187;-68
2022/05/05 06:22:16;;;;;;;8.63;3.93;;;11.70;99.90;;;;;;5123800;27;20191;-68
2022/05/05 06:24:41;;;;;;;6.93;4.17;;;11.70;99.90;;;;;;5121508;27;20213;-69
2022/05/05 06:27:07;;;;;;;8.60;3.80;;;11.70;99.90;;;;;;5117400;27;20198;-68
2022/05/05 06:29:33;;;;;;;8.70;4.67;;;11.70;99.90;;;;;;5123723;27;20708;-67
2022/05/05 06:31:58;;;;;;;5.57;3.40;;;11.60;99.90;;;;;;5121794;27;20587;-66
2022/05/05 06:34:24;;;;;;;9.80;4.50;;;11.70;99.90;;;;;;5110000;28;20211;-67
2022/05/05 06:36:49;;;;;;;8.03;3.97;;;11.60;99.90;;;;;;5116842;28;20203;-67
2022/05/05 06:39:15;;;;;;;10.63;4.43;;;11.60;99.90;;;;;;5122282;28;20190;-67
2022/05/05 06:41:41;;;;;;;7.10;4.23;;;11.60;99.90;;;;;;5124275;27;20186;-68
2022/05/05 06:44:06;;;;;;;4.97;3.40;;;11.50;99.90;;;;;;5125562;27;20218;-67
2022/05/05 06:46:33;;;;;;;5.73;3.50;;;11.60;99.90;;;;;;5125972;27;20186;-68
2022/05/05 06:48:58;;;;;;;7.37;3.70;;;11.60;99.90;;;;;;5124769;27;20904;-68
2022/05/05 06:51:24;;;;;;;7.47;3.90;;;11.60;99.90;;;;;;5123348;27;20432;-65
2022/05/05 06:53:50;;;;;;;8.07;3.63;;;11.60;99.90;;;;;;5121038;27;20247;-68
2022/05/05 06:56:16;;;;;;;8.60;4.20;;;11.60;99.90;;;;;;5118403;27;20676;-68
2022/05/05 06:58:41;;;;;;;6.20;3.30;;;11.60;99.90;;;;;;5107364;27;20194;-67
2022/05/05 07:05:23;;;;;;;4.70;3.30;;;11.70;99.90;;;;;;5117107;27;20206;-68
2022/05/05 07:06:36;;;;;;;5.40;3.47;;;11.70;99.90;;;;;;5112651;27;20420;-66
2022/05/05 07:11:46;;;;;;;6.17;3.70;;;11.90;99.90;;;;;;5122394;27;20189;-67
2022/05/05 07:14:12;;;;;;;8.67;4.13;;;12.10;99.90;;;;;;5119555;27;20448;-68
2022/05/05 07:16:38;;;;;;;6.80;4.13;;;12.20;99.90;;;;;;5117467;27;20333;-67
2022/05/05 07:19:04;;;;;;;7.53;4.10;;;12.20;99.90;;;;;;5118571;27;20207;-67
2022/05/05 07:21:30;;;;;;;7.47;4.10;;;12.30;99.90;;;;;;5120989;27;20214;-65
2022/05/05 07:23:56;;;;;;;8.87;4.27;;;12.30;99.90;;;;;;5117187;27;20471;-66
2022/05/05 07:26:22;;;;;;;10.10;3.73;;;12.30;99.90;;;;;;5126837;27;20468;-67
2022/05/05 07:28:47;;;;;;;10.70;3.63;;;12.30;99.90;;;;;;5122134;27;20842;-66
2022/05/05 07:31:13;;;;;;;7.50;4.00;;;12.40;99.90;;;;;;5127452;27;20745;-67
2022/05/05 07:33:39;;;;;;;7.87;3.57;;;12.40;99.90;;;;;;5125244;27;20247;-67
2022/05/05 07:36:05;;;;;;;8.40;3.50;;;12.50;99.90;;;;;;5121628;27;20186;-67
2022/05/05 07:38:31;;;;;;;9.00;4.60;;;12.60;99.90;;;;;;5126390;27;20187;-67
2022/05/05 07:40:57;;;;;;;5.83;3.70;;;12.60;99.90;;;;;;5124317;27;20819;-68
2022/05/05 07:43:23;;;;;;;7.17;4.33;;;12.60;99.90;;;;;;5114453;27;20414;-67
2022/05/05 07:45:49;;;;;;;9.50;3.80;;;12.60;99.90;;;;;;5120988;27;20623;-68
2022/05/05 07:48:15;;;;;;;7.43;3.03;;;12.70;99.90;;;;;;5123600;27;20424;-67
2022/05/05 07:50:41;;;;;;;7.60;4.40;;;12.80;99.90;;;;;;5123183;27;20979;-68
2022/05/05 07:53:07;;;;;;;7.90;3.90;;;12.80;99.90;;;;;;5121648;27;20270;-67
2022/05/05 07:55:33;;;;;;;9.23;4.37;;;12.90;99.90;;;;;;5122243;27;20210;-67
2022/05/05 07:57:59;;;;;;;14.00;4.70;;;12.90;99.90;;;;;;5117135;27;20252;-67
2022/05/05 08:00:24;;;;;;;9.40;3.37;;;13.20;99.90;;;;;;5120407;27;20194;-67
2022/05/05 08:02:50;;;;;;;12.20;3.63;;;13.20;99.90;;;;;;5092493;27;20179;-67
2022/05/05 08:05:16;;;;;;;6.13;3.47;;;13.20;99.90;;;;;;5117508;27;20293;-67
2022/05/05 08:07:48;;;;;;;9.00;4.73;;;13.40;99.90;;;;;;5117738;27;20637;-69
2022/05/05 08:10:14;;;;;;;6.93;3.93;;;13.40;99.90;;;;;;5118587;27;20955;-67
2022/05/05 08:12:40;;;;;;;8.67;4.23;;;13.40;99.90;;;;;;5124500;27;20934;-67
2022/05/05 08:15:07;;;;;;;8.20;4.87;;;13.30;99.90;;;;;;5127587;27;20476;-68
2022/05/05 08:17:33;;;;;;;6.17;3.63;;;13.50;99.90;;;;;;5128048;27;20278;-66
2022/05/05 08:20:00;;;;;;;8.13;4.50;;;13.60;99.90;;;;;;5127584;27;20436;-66
2022/05/05 08:22:25;;;;;;;12.17;5.60;;;13.50;99.90;;;;;;5126411;27;20488;-66
2022/05/05 08:30:19;;;;;;;9.50;4.33;;;13.40;99.90;;;;;;5125636;27;20490;-67
2022/05/05 08:32:45;;;;;;;18.83;5.27;;;13.50;99.90;;;;;;5117074;27;21221;-67
2022/05/05 08:35:10;;;;;;;10.27;5.57;;;13.40;99.90;;;;;;5111712;27;20196;-66
2022/05/05 08:37:36;;;;;;;11.73;5.17;;;13.40;99.90;;;;;;5121122;27;20179;-67
2022/05/05 08:40:02;;;;;;;13.93;5.80;;;13.50;99.90;;;;;;5122023;27;20932;-66
2022/05/05 08:42:28;;;;;;;10.57;4.60;;;13.40;99.90;;;;;;5122687;27;20558;-66
2022/05/05 08:44:54;;;;;;;9.53;5.20;;;13.20;99.90;;;;;;5121616;27;20455;-66
2022/05/05 08:47:23;;;;;;;11.27;5.30;;;13.20;99.90;;;;;;5122268;27;20191;-65
2022/05/05 08:49:49;;;;;;;12.20;6.33;;;13.10;99.90;;;;;;5120576;27;20211;-64
2022/05/05 08:52:21;;;;;;;11.50;5.87;;;13.10;99.90;;;;;;5120576;27;20443;-69
2022/05/05 08:54:48;;;;;;;13.37;5.83;;;13.00;99.90;;;;;;5119516;27;20690;-68
2022/05/05 08:57:14;;;;;;;11.70;4.90;;;12.90;99.90;;;;;;5114889;27;20958;-69
2022/05/05 08:59:40;;;;;;;9.77;5.80;;;12.90;99.90;;;;;;5118920;27;20433;-69
2022/05/05 09:02:06;;;;;;;11.10;6.40;;;12.80;99.90;;;;;;5118557;27;21853;-69
2022/05/05 09:04:31;;;;;;;14.20;5.67;;;12.70;99.90;;;;;;5112542;27;20571;-69
2022/05/05 09:06:57;;;;;;;12.83;6.80;;;12.80;99.90;;;;;;5113659;27;20187;-68
2022/05/05 09:09:30;;;;;;;10.50;6.00;;;12.80;99.90;;;;;;5122673;27;20209;-69
2022/05/05 09:12:17;;;;;;;11.50;5.63;;;12.80;99.90;;;;;;5119071;27;20181;-69
2022/05/05 09:14:53;;;;;;;10.90;5.70;;;12.90;99.90;;;;;;5117487;27;20456;-66
2022/05/05 09:17:20;;;;;;;9.43;6.00;;;12.80;99.90;;;;;;5114632;27;20421;-67
2022/05/05 09:19:49;;;;;;;11.73;6.47;;;12.80;99.90;;;;;;5121898;27;20515;-66
2022/05/05 09:22:17;;;;;;;12.90;6.87;;;12.80;99.90;;;;;;5114367;27;20425;-65
2022/05/05 09:24:44;;;;;;;10.33;5.47;;;12.80;99.90;;;;;;5097817;28;20464;-66
2022/05/05 09:27:39;;;;;;;15.73;5.90;;;12.80;99.90;;;;;;5118673;27;20416;-67
2022/05/05 09:30:12;;;;;;;13.87;7.57;;;12.80;99.90;;;;;;5107612;27;20564;-66
2022/05/05 09:32:45;;;;;;;11.63;5.40;;;12.80;99.90;;;;;;5118257;27;20425;-65
2022/05/05 09:35:13;;;;;;;13.20;6.70;;;12.80;99.90;;;;;;5114762;27;20433;-66
2022/05/05 09:37:49;;;;;;;12.57;6.60;;;12.80;99.90;;;;;;5118263;27;20417;-66
2022/05/05 09:40:20;;;;;;;11.73;6.27;;;12.80;99.90;;;;;;5121051;27;20934;-66
2022/05/05 09:42:47;;;;;;;11.30;6.47;;;12.90;99.90;;;;;;5117611;27;20410;-68
2022/05/05 09:45:19;;;;;;;14.07;6.90;;;13.00;99.90;;;;;;5121044;27;20914;-66
2022/05/05 09:47:56;;;;;;;11.60;6.90;;;13.00;99.90;;;;;;5115797;27;20421;-67
2022/05/05 09:50:24;;;;;;;11.47;6.30;;;12.90;99.90;;;;;;5120991;27;20606;-67
2022/05/05 09:58:23;;;;;;;13.57;7.03;;;12.90;99.90;;;;;;5120940;27;20415;-67
2022/05/05 10:06:53;;;;;;;15.80;8.60;;;12.90;99.90;;;;;;5117035;27;20412;-65
2022/05/05 10:09:19;;;;;;;17.93;8.50;;;12.90;99.90;;;;;;5121772;27;20505;-66
2022/05/05 10:11:45;;;;;;;15.50;8.87;;;12.90;99.90;;;;;;5121486;27;21197;-65
2022/05/05 10:14:13;;;;;;;17.40;8.90;;;12.80;99.90;;;;;;5116737;27;20274;-68
2022/05/05 10:16:40;;;;;;;15.03;8.13;;;12.80;99.90;;;;;;5121508;27;20515;-66
2022/05/05 10:19:07;;;;;;;14.23;8.37;;;12.70;99.90;;;;;;5123877;27;20477;-66
2022/05/05 10:21:41;;;;;;;14.30;7.70;;;12.70;99.90;;;;;;5120317;27;20420;-66
2022/05/05 10:24:17;;;;;;;16.30;7.90;;;12.70;99.90;;;;;;5123321;27;20463;-66
2022/05/05 10:26:49;;;;;;;33.67;9.83;;;12.70;99.90;;;;;;5118579;27;20532;-66
2022/05/05 10:29:33;;;;;;;16.47;8.40;;;12.80;99.90;;;;;;5123002;27;20958;-66
2022/05/05 10:32:05;;;;;;;24.17;8.30;;;12.80;99.90;;;;;;5117268;27;20417;-67
2022/05/05 10:34:32;;;;;;;25.30;9.20;;;12.90;99.90;;;;;;5117406;27;20437;-67
2022/05/05 10:37:09;;;;;;;17.10;9.13;;;12.90;99.90;;;;;;5112826;28;20430;-66
2022/05/05 10:39:47;;;;;;;15.13;8.23;;;13.00;99.90;;;;;;5117776;28;20411;-67
2022/05/05 10:42:40;;;;;;;24.60;9.20;;;13.00;99.90;;;;;;5120705;28;20424;-66
2022/05/05 10:45:13;;;;;;;16.60;10.23;;;13.00;99.90;;;;;;5117861;28;20436;-66
2022/05/05 10:48:01;;;;;;;18.57;7.47;;;12.90;99.90;;;;;;5116541;28;20936;-67
2022/05/05 10:50:37;;;;;;;13.33;8.00;;;13.00;99.90;;;;;;5120546;28;20495;-68
2022/05/05 10:53:03;;;;;;;16.10;9.00;;;12.90;99.90;;;;;;5113711;28;20474;-67
2022/05/05 10:55:33;;;;;;;18.23;10.17;;;12.90;99.90;;;;;;5118346;28;20843;-66
2022/05/05 10:57:59;;;;;;;17.53;10.13;;;12.90;99.90;;;;;;5110689;28;20502;-67
2022/05/05 11:00:40;;;;;;;18.70;10.63;;;12.80;99.90;;;;;;5125766;28;21111;-67
2022/05/05 11:03:11;;;;;;;23.50;10.87;;;12.80;99.90;;;;;;5104343;28;20186;-67
2022/05/05 11:05:38;;;;;;;18.47;10.00;;;12.70;99.90;;;;;;5116964;28;20444;-64
2022/05/05 11:08:14;;;;;;;26.17;10.80;;;12.60;99.90;;;;;;5122791;28;20434;-67
2022/05/05 11:14:00;;;;;;;19.67;11.07;;;12.50;99.90;;;;;;5118410;28;20432;-66
2022/05/05 11:22:12;;;;;;;27.47;14.03;;;12.50;99.90;;;;;;5118247;28;20408;-65
2022/05/05 11:24:45;;;;;;;24.00;11.90;;;12.50;99.90;;;;;;5119701;28;20432;-66
2022/05/05 11:27:12;;;;;;;21.63;11.90;;;12.50;99.90;;;;;;5119201;27;20500;-65
2022/05/05 11:29:38;;;;;;;29.83;13.87;;;12.40;99.90;;;;;;5121159;27;20480;-66
2022/05/05 11:32:08;;;;;;;25.47;13.60;;;12.50;99.90;;;;;;5120843;27;20971;-66
2022/05/05 11:34:39;;;;;;;22.20;13.17;;;12.60;99.90;;;;;;5116304;27;20803;-66
2022/05/05 11:37:07;;;;;;;22.50;13.33;;;12.60;99.90;;;;;;5121075;27;20535;-65
2022/05/05 11:39:34;;;;;;;18.67;11.23;;;12.70;99.90;;;;;;5118508;27;20486;-67
2022/05/05 11:42:05;;;;;;;30.97;12.60;;;12.90;99.90;;;;;;5126931;27;20515;-67
2022/05/05 11:44:35;;;;;;;21.30;11.83;;;13.00;99.90;;;;;;5128203;27;20474;-67
2022/05/05 11:47:15;;;;;;;20.80;11.50;;;13.00;99.90;;;;;;5129602;27;20416;-67
2022/05/05 11:49:48;;;;;;;19.70;11.50;;;13.00;99.90;;;;;;5128303;27;20467;-67
2022/05/05 11:52:21;;;;;;;19.90;11.90;;;13.10;99.90;;;;;;5121985;27;20977;-67
2022/05/05 11:54:49;;;;;;;20.20;10.47;;;13.10;99.90;;;;;;5118267;27;21297;-67
2022/05/05 11:57:40;;;;;;;19.23;11.37;;;13.20;99.90;;;;;;5119575;27;20544;-68
2022/05/05 12:02:57;;;;;;;20.10;10.63;;;13.50;99.90;;;;;;5120467;27;20408;-67
2022/05/05 12:05:24;;;;;;;21.00;10.50;;;14.00;99.90;;;;;;5116106;27;20549;-67
2022/05/05 12:07:51;;;;;;;15.47;9.03;;;14.40;99.90;;;;;;5125112;27;20425;-67
2022/05/05 12:10:18;;;;;;;17.77;9.67;;;14.60;99.90;;;;;;5122499;27;21010;-67
2022/05/05 12:12:46;;;;;;;16.97;9.53;;;14.80;99.90;;;;;;5125223;27;20469;-67
2022/05/05 12:15:13;;;;;;;19.47;9.47;;;15.00;99.90;;;;;;5121613;27;20480;-68
2022/05/05 12:17:43;;;;;;;16.40;8.83;;;14.80;99.90;;;;;;5124158;27;20424;-67
2022/05/05 12:20:11;;;;;;;18.67;10.70;;;15.00;99.90;;;;;;5119386;27;20432;-65
2022/05/05 12:22:39;;;;;;;21.70;9.90;;;15.10;99.90;;;;;;5123041;27;20584;-66
2022/05/05 12:25:15;;;;;;;16.90;9.57;;;15.00;99.90;;;;;;5118136;27;20879;-67
2022/05/05 12:27:42;;;;;;;29.80;9.43;;;15.10;99.90;;;;;;5122410;27;20470;-67
2022/05/05 12:30:09;;;;;;;28.00;9.70;;;15.00;99.90;;;;;;5116882;27;20464;-66
2022/05/05 12:32:34;;;;;;;15.80;9.30;;;15.00;99.90;;;;;;5120481;27;20423;-66
2022/05/05 12:35:06;;;;;;;14.07;8.43;;;15.00;99.90;;;;;;5115300;27;20441;-67
2022/05/05 12:37:32;;;;;;;13.53;8.60;;;15.10;99.90;;;;;;5094977;27;20241;-67
2022/05/05 12:39:57;;;;;;;16.77;9.57;;;15.20;99.90;;;;;;5127515;27;20429;-67
2022/05/05 12:42:24;;;;;;;19.77;11.23;;;15.30;99.90;;;;;;5122705;27;20180;-68
2022/05/05 12:44:51;;;;;;;16.23;9.97;;;15.20;99.90;;;;;;5124988;27;20213;-67
2022/05/05 12:47:24;;;;;;;19.27;10.53;;;15.20;99.90;;;;;;5120352;27;20424;-67
2022/05/05 12:49:50;;;;;;;16.57;10.03;;;15.00;99.90;;;;;;5126288;27;20752;-67
2022/05/05 13:00:43;;;;;;;15.10;8.10;;;14.80;99.90;;;;;;5117085;27;20409;-65
2022/05/05 13:03:09;;;;;;;14.07;8.30;;;15.30;99.90;;;;;;5118286;27;20451;-67
2022/05/05 13:05:36;;;;;;;22.13;9.47;;;15.30;99.90;;;;;;5117899;27;20219;-67
2022/05/05 13:08:01;;;;;;;21.10;9.73;;;15.50;99.90;;;;;;5121959;27;20417;-66
2022/05/05 13:10:27;;;;;;;13.27;8.17;;;15.50;99.90;;;;;;5116409;27;20476;-67
2022/05/05 13:12:52;;;;;;;16.23;8.10;;;15.50;99.90;;;;;;5121942;27;20194;-67
2022/05/05 13:15:18;;;;;;;19.97;8.93;;;16.00;99.90;;;;;;5115860;27;20211;-67
2022/05/05 13:17:44;;;;;;;16.13;8.30;;;15.90;99.90;;;;;;5121036;27;20976;-67
2022/05/05 13:20:10;;;;;;;11.77;7.30;;;15.80;99.90;;;;;;5121169;27;20183;-68
2022/05/05 13:22:35;;;;;;;26.43;8.43;;;15.90;99.90;;;;;;5126798;27;20661;-67
2022/05/05 13:25:01;;;;;;;16.50;7.47;;;16.00;99.90;;;;;;5126589;27;20451;-68
2022/05/05 13:27:27;;;;;;;17.13;7.30;;;16.20;99.90;;;;;;5121329;27;20315;-66
2022/05/05 13:29:52;;;;;;;11.57;6.60;;;16.40;99.90;;;;;;5126658;27;20250;-68
2022/05/05 13:32:18;;;;;;;11.83;7.00;;;16.40;99.90;;;;;;5116065;27;20191;-66
2022/05/05 13:34:43;;;;;;;17.83;7.40;;;16.20;99.90;;;;;;5119855;27;20259;-67
2022/05/05 13:37:09;;;;;;;11.63;7.43;;;16.20;99.90;;;;;;5123094;27;20182;-67
2022/05/05 13:39:35;;;;;;;12.23;6.87;;;16.10;99.90;;;;;;5124174;27;20359;-67
2022/05/05 13:42:00;;;;;;;14.40;7.10;;;16.00;99.90;;;;;;5124728;27;20251;-67
2022/05/05 13:44:26;;;;;;;11.40;7.50;;;16.00;99.90;;;;;;5122711;27;20215;-66